sensor_id;sensor_type;location;lat;lon;timestamp;P1;durP1;ratioP1;P2;durP2;ratioP2
836;SDS011;400;53.550;9.932;2023-11-19T00:00:06;8.10;;;7.30;;
836;SDS011;400;53.550;9.932;2023-11-19T00:02:36;10.35;;;7.30;;
836;SDS011;400;53.550;9.932;2023-11-19T00:05:03;9.13;;;7.32;;
836;SDS011;400;53.550;9.932;2023-11-19T00:07:37;9.60;;;7.40;;
836;SDS011;400;53.550;9.932;2023-11-19T00:10:09;7.72;;;6.55;;
836;SDS011;400;53.550;9.932;2023-11-19T00:12:41;7.70;;;7.00;;
836;SDS011;400;53.550;9.932;2023-11-19T00:15:12;8.05;;;6.72;;
836;SDS011;400;53.550;9.932;2023-11-19T00:17:39;6.25;;;5.55;;
836;SDS011;400;53.550;9.932;2023-11-19T00:20:09;6.72;;;5.95;;
836;SDS011;400;53.550;9.932;2023-11-19T00:22:38;7.38;;;5.82;;
836;SDS011;400;53.550;9.932;2023-11-19T00:25:07;6.90;;;6.20;;
836;SDS011;400;53.550;9.932;2023-11-19T00:27:34;7.10;;;6.40;;
836;SDS011;400;53.550;9.932;2023-11-19T00:30:02;7.22;;;5.97;;
836;SDS011;400;53.550;9.932;2023-11-19T00:32:30;7.00;;;5.10;;
836;SDS011;400;53.550;9.932;2023-11-19T00:34:57;6.32;;;5.72;;
836;SDS011;400;53.550;9.932;2023-11-19T00:37:24;5.88;;;5.38;;
836;SDS011;400;53.550;9.932;2023-11-19T00:39:53;5.80;;;5.30;;
836;SDS011;400;53.550;9.932;2023-11-19T00:42:21;5.20;;;4.63;;
836;SDS011;400;53.550;9.932;2023-11-19T00:44:48;4.93;;;4.53;;
836;SDS011;400;53.550;9.932;2023-11-19T00:47:15;5.78;;;5.28;;
836;SDS011;400;53.550;9.932;2023-11-19T00:49:42;4.85;;;4.30;;
836;SDS011;400;53.550;9.932;2023-11-19T00:52:10;5.70;;;5.20;;
836;SDS011;400;53.550;9.932;2023-11-19T00:54:36;5.65;;;4.10;;
836;SDS011;400;53.550;9.932;2023-11-19T00:57:05;5.22;;;4.72;;
836;SDS011;400;53.550;9.932;2023-11-19T00:59:32;6.03;;;5.28;;
836;SDS011;400;53.550;9.932;2023-11-19T01:01:59;5.60;;;4.60;;
836;SDS011;400;53.550;9.932;2023-11-19T01:04:28;7.30;;;5.00;;
836;SDS011;400;53.550;9.932;2023-11-19T01:06:55;3.20;;;3.00;;
836;SDS011;400;53.550;9.932;2023-11-19T01:09:22;3.97;;;3.67;;
836;SDS011;400;53.550;9.932;2023-11-19T01:11:49;3.60;;;3.30;;
836;SDS011;400;53.550;9.932;2023-11-19T01:14:18;4.07;;;3.67;;
836;SDS011;400;53.550;9.932;2023-11-19T01:16:48;3.50;;;3.20;;
836;SDS011;400;53.550;9.932;2023-11-19T01:19:15;3.33;;;3.13;;
836;SDS011;400;53.550;9.932;2023-11-19T01:21:42;3.70;;;3.30;;
836;SDS011;400;53.550;9.932;2023-11-19T01:24:08;3.58;;;3.28;;
836;SDS011;400;53.550;9.932;2023-11-19T01:29:13;2.45;;;2.35;;
836;SDS011;400;53.550;9.932;2023-11-19T01:31:41;2.85;;;2.65;;
836;SDS011;400;53.550;9.932;2023-11-19T01:34:09;2.80;;;2.60;;
836;SDS011;400;53.550;9.932;2023-11-19T01:36:37;2.78;;;2.58;;
836;SDS011;400;53.550;9.932;2023-11-19T01:39:04;3.15;;;2.60;;
836;SDS011;400;53.550;9.932;2023-11-19T01:41:33;2.42;;;2.22;;
836;SDS011;400;53.550;9.932;2023-11-19T01:44:01;3.03;;;2.83;;
836;SDS011;400;53.550;9.932;2023-11-19T01:46:29;2.30;;;2.10;;
836;SDS011;400;53.550;9.932;2023-11-19T01:49:00;1.92;;;1.75;;
836;SDS011;400;53.550;9.932;2023-11-19T01:51:27;1.73;;;1.63;;
836;SDS011;400;53.550;9.932;2023-11-19T01:53:55;1.50;;;1.45;;
836;SDS011;400;53.550;9.932;2023-11-19T01:56:24;2.80;;;1.95;;
836;SDS011;400;53.550;9.932;2023-11-19T01:58:55;1.60;;;1.50;;
836;SDS011;400;53.550;9.932;2023-11-19T02:01:23;1.67;;;1.50;;
836;SDS011;400;53.550;9.932;2023-11-19T02:03:50;1.52;;;1.42;;
836;SDS011;400;53.550;9.932;2023-11-19T02:06:19;0.90;;;0.90;;
836;SDS011;400;53.550;9.932;2023-11-19T02:08:46;1.80;;;1.70;;
836;SDS011;400;53.550;9.932;2023-11-19T02:11:13;1.70;;;1.38;;
836;SDS011;400;53.550;9.932;2023-11-19T02:13:40;1.50;;;1.40;;
836;SDS011;400;53.550;9.932;2023-11-19T02:16:09;1.70;;;1.60;;
836;SDS011;400;53.550;9.932;2023-11-19T02:18:36;1.52;;;1.42;;
836;SDS011;400;53.550;9.932;2023-11-19T02:21:03;1.70;;;1.55;;
836;SDS011;400;53.550;9.932;2023-11-19T02:23:33;1.35;;;1.35;;
836;SDS011;400;53.550;9.932;2023-11-19T02:26:02;1.92;;;1.80;;
836;SDS011;400;53.550;9.932;2023-11-19T02:28:37;1.20;;;1.20;;
836;SDS011;400;53.550;9.932;2023-11-19T02:31:05;1.63;;;1.40;;
836;SDS011;400;53.550;9.932;2023-11-19T02:33:34;1.45;;;1.35;;
836;SDS011;400;53.550;9.932;2023-11-19T02:36:01;1.42;;;1.33;;
836;SDS011;400;53.550;9.932;2023-11-19T02:38:29;1.65;;;1.55;;
836;SDS011;400;53.550;9.932;2023-11-19T02:40:56;1.40;;;1.30;;
836;SDS011;400;53.550;9.932;2023-11-19T02:43:23;1.70;;;1.60;;
836;SDS011;400;53.550;9.932;2023-11-19T02:45:52;1.48;;;1.38;;
836;SDS011;400;53.550;9.932;2023-11-19T02:48:21;1.60;;;1.50;;
836;SDS011;400;53.550;9.932;2023-11-19T02:50:48;1.70;;;1.60;;
836;SDS011;400;53.550;9.932;2023-11-19T02:53:17;1.90;;;1.80;;
836;SDS011;400;53.550;9.932;2023-11-19T02:55:47;3.70;;;1.58;;
836;SDS011;400;53.550;9.932;2023-11-19T02:58:15;1.73;;;1.63;;
836;SDS011;400;53.550;9.932;2023-11-19T03:00:48;2.00;;;1.90;;
836;SDS011;400;53.550;9.932;2023-11-19T03:03:23;1.58;;;1.48;;
836;SDS011;400;53.550;9.932;2023-11-19T03:05:55;2.08;;;1.98;;
836;SDS011;400;53.550;9.932;2023-11-19T03:08:23;2.15;;;2.05;;
836;SDS011;400;53.550;9.932;2023-11-19T03:10:53;2.00;;;1.90;;
836;SDS011;400;53.550;9.932;2023-11-19T03:13:20;1.80;;;1.70;;
836;SDS011;400;53.550;9.932;2023-11-19T03:15:47;2.65;;;2.50;;
836;SDS011;400;53.550;9.932;2023-11-19T03:18:14;1.50;;;1.40;;
836;SDS011;400;53.550;9.932;2023-11-19T03:20:45;1.60;;;1.50;;
836;SDS011;400;53.550;9.932;2023-11-19T03:23:13;2.28;;;2.05;;
836;SDS011;400;53.550;9.932;2023-11-19T03:25:40;1.77;;;1.70;;
836;SDS011;400;53.550;9.932;2023-11-19T03:28:07;1.90;;;1.75;;
836;SDS011;400;53.550;9.932;2023-11-19T03:30:34;1.38;;;1.30;;
836;SDS011;400;53.550;9.932;2023-11-19T03:33:02;1.90;;;1.80;;
836;SDS011;400;53.550;9.932;2023-11-19T03:35:29;1.80;;;1.70;;
836;SDS011;400;53.550;9.932;2023-11-19T03:37:59;2.72;;;2.22;;
836;SDS011;400;53.550;9.932;2023-11-19T03:40:27;2.28;;;2.13;;
836;SDS011;400;53.550;9.932;2023-11-19T03:42:55;2.72;;;2.50;;
836;SDS011;400;53.550;9.932;2023-11-19T03:45:22;3.17;;;2.60;;
836;SDS011;400;53.550;9.932;2023-11-19T03:47:49;2.60;;;2.40;;
836;SDS011;400;53.550;9.932;2023-11-19T03:50:17;2.03;;;1.92;;
836;SDS011;400;53.550;9.932;2023-11-19T03:52:47;2.30;;;2.10;;
836;SDS011;400;53.550;9.932;2023-11-19T03:55:19;2.90;;;2.35;;
836;SDS011;400;53.550;9.932;2023-11-19T03:57:49;2.72;;;2.53;;
836;SDS011;400;53.550;9.932;2023-11-19T04:00:16;3.75;;;3.45;;
836;SDS011;400;53.550;9.932;2023-11-19T04:02:46;3.20;;;2.95;;
836;SDS011;400;53.550;9.932;2023-11-19T04:05:13;2.92;;;2.72;;
836;SDS011;400;53.550;9.932;2023-11-19T04:07:43;3.97;;;3.67;;
836;SDS011;400;53.550;9.932;2023-11-19T04:10:10;3.25;;;2.95;;
836;SDS011;400;53.550;9.932;2023-11-19T04:12:39;3.28;;;3.08;;
836;SDS011;400;53.550;9.932;2023-11-19T04:15:07;4.40;;;4.10;;
836;SDS011;400;53.550;9.932;2023-11-19T04:17:38;3.35;;;3.15;;
836;SDS011;400;53.550;9.932;2023-11-19T04:20:09;4.38;;;4.07;;
836;SDS011;400;53.550;9.932;2023-11-19T04:22:38;3.15;;;2.85;;
836;SDS011;400;53.550;9.932;2023-11-19T04:25:06;3.97;;;3.67;;
836;SDS011;400;53.550;9.932;2023-11-19T04:27:34;4.20;;;3.80;;
836;SDS011;400;53.550;9.932;2023-11-19T04:30:02;5.28;;;4.88;;
836;SDS011;400;53.550;9.932;2023-11-19T04:32:30;5.43;;;4.90;;
836;SDS011;400;53.550;9.932;2023-11-19T04:34:57;4.82;;;4.43;;
836;SDS011;400;53.550;9.932;2023-11-19T04:37:24;5.55;;;5.05;;
836;SDS011;400;53.550;9.932;2023-11-19T04:39:51;5.88;;;5.28;;
836;SDS011;400;53.550;9.932;2023-11-19T04:42:18;5.97;;;5.47;;
836;SDS011;400;53.550;9.932;2023-11-19T04:44:45;6.80;;;5.80;;
836;SDS011;400;53.550;9.932;2023-11-19T04:47:13;6.10;;;5.35;;
836;SDS011;400;53.550;9.932;2023-11-19T04:49:40;5.97;;;5.38;;
836;SDS011;400;53.550;9.932;2023-11-19T04:52:08;6.05;;;5.38;;
836;SDS011;400;53.550;9.932;2023-11-19T04:54:40;9.77;;;6.10;;
836;SDS011;400;53.550;9.932;2023-11-19T04:57:10;7.75;;;5.95;;
836;SDS011;400;53.550;9.932;2023-11-19T04:59:38;6.20;;;5.63;;
836;SDS011;400;53.550;9.932;2023-11-19T05:02:05;7.20;;;6.57;;
836;SDS011;400;53.550;9.932;2023-11-19T05:04:33;7.75;;;6.88;;
836;SDS011;400;53.550;9.932;2023-11-19T05:07:00;13.15;;;7.32;;
836;SDS011;400;53.550;9.932;2023-11-19T05:09:28;8.10;;;6.80;;
836;SDS011;400;53.550;9.932;2023-11-19T05:11:55;9.57;;;7.80;;
836;SDS011;400;53.550;9.932;2023-11-19T05:14:22;11.23;;;7.22;;
836;SDS011;400;53.550;9.932;2023-11-19T05:16:49;12.13;;;8.43;;
836;SDS011;400;53.550;9.932;2023-11-19T05:19:16;16.17;;;10.45;;
836;SDS011;400;53.550;9.932;2023-11-19T05:21:45;12.73;;;9.00;;
836;SDS011;400;53.550;9.932;2023-11-19T05:24:12;15.98;;;11.38;;
836;SDS011;400;53.550;9.932;2023-11-19T05:26:39;21.23;;;13.30;;
836;SDS011;400;53.550;9.932;2023-11-19T05:29:06;17.63;;;13.90;;
836;SDS011;400;53.550;9.932;2023-11-19T05:31:33;21.45;;;14.50;;
836;SDS011;400;53.550;9.932;2023-11-19T05:34:00;24.33;;;16.25;;
836;SDS011;400;53.550;9.932;2023-11-19T05:36:27;28.07;;;16.90;;
836;SDS011;400;53.550;9.932;2023-11-19T05:38:56;25.38;;;17.48;;
836;SDS011;400;53.550;9.932;2023-11-19T05:41:25;27.27;;;19.30;;
836;SDS011;400;53.550;9.932;2023-11-19T05:43:52;26.17;;;17.20;;
836;SDS011;400;53.550;9.932;2023-11-19T05:46:19;25.95;;;18.00;;
836;SDS011;400;53.550;9.932;2023-11-19T05:48:46;28.20;;;17.45;;
836;SDS011;400;53.550;9.932;2023-11-19T05:51:14;23.92;;;18.10;;
836;SDS011;400;53.550;9.932;2023-11-19T05:53:41;29.17;;;18.90;;
836;SDS011;400;53.550;9.932;2023-11-19T05:56:12;32.30;;;20.05;;
836;SDS011;400;53.550;9.932;2023-11-19T05:58:41;26.40;;;18.88;;
836;SDS011;400;53.550;9.932;2023-11-19T06:01:09;29.30;;;19.00;;
836;SDS011;400;53.550;9.932;2023-11-19T06:03:36;34.80;;;19.23;;
836;SDS011;400;53.550;9.932;2023-11-19T06:06:03;24.77;;;20.47;;
836;SDS011;400;53.550;9.932;2023-11-19T06:08:31;31.80;;;20.60;;
836;SDS011;400;53.550;9.932;2023-11-19T06:10:58;27.53;;;16.80;;
836;SDS011;400;53.550;9.932;2023-11-19T06:13:27;30.23;;;19.60;;
836;SDS011;400;53.550;9.932;2023-11-19T06:15:56;37.83;;;25.37;;
836;SDS011;400;53.550;9.932;2023-11-19T06:18:22;29.77;;;17.67;;
836;SDS011;400;53.550;9.932;2023-11-19T06:20:50;32.38;;;16.35;;
836;SDS011;400;53.550;9.932;2023-11-19T06:23:17;29.03;;;16.77;;
836;SDS011;400;53.550;9.932;2023-11-19T06:25:44;25.83;;;15.37;;
836;SDS011;400;53.550;9.932;2023-11-19T06:28:11;23.17;;;13.97;;
836;SDS011;400;53.550;9.932;2023-11-19T06:30:39;23.57;;;15.70;;
836;SDS011;400;53.550;9.932;2023-11-19T06:33:06;25.27;;;14.57;;
836;SDS011;400;53.550;9.932;2023-11-19T06:35:36;24.43;;;13.87;;
836;SDS011;400;53.550;9.932;2023-11-19T06:38:09;27.03;;;15.50;;
836;SDS011;400;53.550;9.932;2023-11-19T06:40:36;24.10;;;14.33;;
836;SDS011;400;53.550;9.932;2023-11-19T06:43:03;21.93;;;12.40;;
836;SDS011;400;53.550;9.932;2023-11-19T06:45:33;27.60;;;14.20;;
836;SDS011;400;53.550;9.932;2023-11-19T06:48:03;25.13;;;14.93;;
836;SDS011;400;53.550;9.932;2023-11-19T06:50:31;25.67;;;12.53;;
836;SDS011;400;53.550;9.932;2023-11-19T06:52:58;23.90;;;13.27;;
836;SDS011;400;53.550;9.932;2023-11-19T06:55:25;20.93;;;12.97;;
836;SDS011;400;53.550;9.932;2023-11-19T06:57:53;22.17;;;11.87;;
836;SDS011;400;53.550;9.932;2023-11-19T07:00:20;20.60;;;11.40;;
836;SDS011;400;53.550;9.932;2023-11-19T07:02:47;21.77;;;15.87;;
836;SDS011;400;53.550;9.932;2023-11-19T07:05:19;14.87;;;10.37;;
836;SDS011;400;53.550;9.932;2023-11-19T07:07:46;20.23;;;10.90;;
836;SDS011;400;53.550;9.932;2023-11-19T07:10:13;26.27;;;15.47;;
836;SDS011;400;53.550;9.932;2023-11-19T07:12:40;29.03;;;15.37;;
836;SDS011;400;53.550;9.932;2023-11-19T07:15:08;17.87;;;10.47;;
836;SDS011;400;53.550;9.932;2023-11-19T07:17:38;24.70;;;11.73;;
836;SDS011;400;53.550;9.932;2023-11-19T07:20:06;22.43;;;9.60;;
836;SDS011;400;53.550;9.932;2023-11-19T07:22:35;18.17;;;9.30;;
836;SDS011;400;53.550;9.932;2023-11-19T07:25:03;17.90;;;9.17;;
836;SDS011;400;53.550;9.932;2023-11-19T07:27:31;15.90;;;8.40;;
836;SDS011;400;53.550;9.932;2023-11-19T07:29:58;24.00;;;6.97;;
836;SDS011;400;53.550;9.932;2023-11-19T07:32:25;22.60;;;12.70;;
836;SDS011;400;53.550;9.932;2023-11-19T07:34:52;19.23;;;8.87;;
836;SDS011;400;53.550;9.932;2023-11-19T07:37:18;19.77;;;8.70;;
836;SDS011;400;53.550;9.932;2023-11-19T07:39:47;21.60;;;7.63;;
836;SDS011;400;53.550;9.932;2023-11-19T07:42:15;15.47;;;7.70;;
836;SDS011;400;53.550;9.932;2023-11-19T07:44:42;21.43;;;8.60;;
836;SDS011;400;53.550;9.932;2023-11-19T07:47:10;37.43;;;25.77;;
836;SDS011;400;53.550;9.932;2023-11-19T07:49:37;19.70;;;11.57;;
836;SDS011;400;53.550;9.932;2023-11-19T07:52:06;30.10;;;16.77;;
836;SDS011;400;53.550;9.932;2023-11-19T07:54:37;19.37;;;7.33;;
836;SDS011;400;53.550;9.932;2023-11-19T07:57:11;18.33;;;6.30;;
836;SDS011;400;53.550;9.932;2023-11-19T07:59:43;17.57;;;6.20;;
836;SDS011;400;53.550;9.932;2023-11-19T08:02:10;20.57;;;6.73;;
836;SDS011;400;53.550;9.932;2023-11-19T08:04:37;25.30;;;8.77;;
836;SDS011;400;53.550;9.932;2023-11-19T08:07:10;24.07;;;8.43;;
836;SDS011;400;53.550;9.932;2023-11-19T08:09:37;21.67;;;7.47;;
836;SDS011;400;53.550;9.932;2023-11-19T08:12:04;25.50;;;9.00;;
836;SDS011;400;53.550;9.932;2023-11-19T08:14:34;19.67;;;10.10;;
836;SDS011;400;53.550;9.932;2023-11-19T08:17:04;27.73;;;13.60;;
836;SDS011;400;53.550;9.932;2023-11-19T08:19:31;39.47;;;22.13;;
836;SDS011;400;53.550;9.932;2023-11-19T08:21:58;21.27;;;6.60;;
836;SDS011;400;53.550;9.932;2023-11-19T08:24:25;26.70;;;8.20;;
836;SDS011;400;53.550;9.932;2023-11-19T08:26:52;21.53;;;5.80;;
836;SDS011;400;53.550;9.932;2023-11-19T08:29:20;20.30;;;6.23;;
836;SDS011;400;53.550;9.932;2023-11-19T08:31:48;17.53;;;5.63;;
836;SDS011;400;53.550;9.932;2023-11-19T08:34:15;25.77;;;8.20;;
836;SDS011;400;53.550;9.932;2023-11-19T08:36:43;22.93;;;6.77;;
836;SDS011;400;53.550;9.932;2023-11-19T08:39:11;19.47;;;6.63;;
836;SDS011;400;53.550;9.932;2023-11-19T08:41:42;19.33;;;4.90;;
836;SDS011;400;53.550;9.932;2023-11-19T08:44:11;22.37;;;6.00;;
836;SDS011;400;53.550;9.932;2023-11-19T08:46:38;27.30;;;7.77;;
836;SDS011;400;53.550;9.932;2023-11-19T08:49:07;22.10;;;7.10;;
836;SDS011;400;53.550;9.932;2023-11-19T08:51:34;16.17;;;6.50;;
836;SDS011;400;53.550;9.932;2023-11-19T08:54:01;18.53;;;6.57;;
836;SDS011;400;53.550;9.932;2023-11-19T08:56:29;21.07;;;6.20;;
836;SDS011;400;53.550;9.932;2023-11-19T08:58:58;19.40;;;6.10;;
836;SDS011;400;53.550;9.932;2023-11-19T09:01:25;19.27;;;6.40;;
836;SDS011;400;53.550;9.932;2023-11-19T09:03:51;21.20;;;6.30;;
836;SDS011;400;53.550;9.932;2023-11-19T09:06:20;21.73;;;6.17;;
836;SDS011;400;53.550;9.932;2023-11-19T09:08:47;19.70;;;6.17;;
836;SDS011;400;53.550;9.932;2023-11-19T09:11:14;23.20;;;5.60;;
836;SDS011;400;53.550;9.932;2023-11-19T09:13:42;16.40;;;4.63;;
836;SDS011;400;53.550;9.932;2023-11-19T09:16:11;19.80;;;7.80;;
836;SDS011;400;53.550;9.932;2023-11-19T09:18:38;20.13;;;7.23;;
836;SDS011;400;53.550;9.932;2023-11-19T09:21:05;23.30;;;6.43;;
836;SDS011;400;53.550;9.932;2023-11-19T09:26:32;18.50;;;6.00;;
836;SDS011;400;53.550;9.932;2023-11-19T09:29:01;18.73;;;6.83;;
836;SDS011;400;53.550;9.932;2023-11-19T09:31:29;25.73;;;6.53;;
836;SDS011;400;53.550;9.932;2023-11-19T09:33:58;15.17;;;5.27;;
836;SDS011;400;53.550;9.932;2023-11-19T09:36:30;16.73;;;5.93;;
836;SDS011;400;53.550;9.932;2023-11-19T09:39:01;26.57;;;7.17;;
836;SDS011;400;53.550;9.932;2023-11-19T09:41:29;19.47;;;6.60;;
836;SDS011;400;53.550;9.932;2023-11-19T09:43:57;22.37;;;7.30;;
836;SDS011;400;53.550;9.932;2023-11-19T09:46:24;26.73;;;6.90;;
836;SDS011;400;53.550;9.932;2023-11-19T09:48:53;25.07;;;6.97;;
836;SDS011;400;53.550;9.932;2023-11-19T09:51:21;23.43;;;7.53;;
836;SDS011;400;53.550;9.932;2023-11-19T09:53:48;15.33;;;5.10;;
836;SDS011;400;53.550;9.932;2023-11-19T09:56:17;19.67;;;5.60;;
836;SDS011;400;53.550;9.932;2023-11-19T09:58:47;25.00;;;6.87;;
836;SDS011;400;53.550;9.932;2023-11-19T10:01:17;21.17;;;5.90;;
836;SDS011;400;53.550;9.932;2023-11-19T10:03:52;23.33;;;7.13;;
836;SDS011;400;53.550;9.932;2023-11-19T10:06:27;22.30;;;6.23;;
836;SDS011;400;53.550;9.932;2023-11-19T10:08:55;21.00;;;5.33;;
836;SDS011;400;53.550;9.932;2023-11-19T10:11:23;30.10;;;7.20;;
836;SDS011;400;53.550;9.932;2023-11-19T10:13:53;17.73;;;5.90;;
836;SDS011;400;53.550;9.932;2023-11-19T10:16:20;20.23;;;5.97;;
836;SDS011;400;53.550;9.932;2023-11-19T10:18:55;12.23;;;4.87;;
836;SDS011;400;53.550;9.932;2023-11-19T10:21:22;21.37;;;6.87;;
836;SDS011;400;53.550;9.932;2023-11-19T10:23:51;17.30;;;6.10;;
836;SDS011;400;53.550;9.932;2023-11-19T10:26:18;24.10;;;7.03;;
836;SDS011;400;53.550;9.932;2023-11-19T10:28:48;18.17;;;5.77;;
836;SDS011;400;53.550;9.932;2023-11-19T10:31:16;23.37;;;6.13;;
836;SDS011;400;53.550;9.932;2023-11-19T10:33:44;25.30;;;6.30;;
836;SDS011;400;53.550;9.932;2023-11-19T10:36:11;44.43;;;24.87;;
836;SDS011;400;53.550;9.932;2023-11-19T10:38:40;30.77;;;16.63;;
836;SDS011;400;53.550;9.932;2023-11-19T10:41:07;20.63;;;7.97;;
836;SDS011;400;53.550;9.932;2023-11-19T10:43:42;47.27;;;32.83;;
836;SDS011;400;53.550;9.932;2023-11-19T10:46:14;18.17;;;5.80;;
836;SDS011;400;53.550;9.932;2023-11-19T10:48:46;30.53;;;11.40;;
836;SDS011;400;53.550;9.932;2023-11-19T10:51:13;17.47;;;6.30;;
836;SDS011;400;53.550;9.932;2023-11-19T10:53:46;18.93;;;5.97;;
836;SDS011;400;53.550;9.932;2023-11-19T10:56:16;20.70;;;6.30;;
836;SDS011;400;53.550;9.932;2023-11-19T10:58:46;19.50;;;5.17;;
836;SDS011;400;53.550;9.932;2023-11-19T11:01:19;21.97;;;5.00;;
836;SDS011;400;53.550;9.932;2023-11-19T11:03:50;24.17;;;6.20;;
836;SDS011;400;53.550;9.932;2023-11-19T11:06:19;17.57;;;5.97;;
836;SDS011;400;53.550;9.932;2023-11-19T11:08:47;14.50;;;4.80;;
836;SDS011;400;53.550;9.932;2023-11-19T11:11:15;26.20;;;6.63;;
836;SDS011;400;53.550;9.932;2023-11-19T11:13:46;21.07;;;6.10;;
836;SDS011;400;53.550;9.932;2023-11-19T11:16:17;23.50;;;7.20;;
836;SDS011;400;53.550;9.932;2023-11-19T11:18:48;20.83;;;6.87;;
836;SDS011;400;53.550;9.932;2023-11-19T11:21:17;20.00;;;6.63;;
836;SDS011;400;53.550;9.932;2023-11-19T11:24:09;16.27;;;4.97;;
836;SDS011;400;53.550;9.932;2023-11-19T11:27:06;19.90;;;6.30;;
836;SDS011;400;53.550;9.932;2023-11-19T11:29:51;26.13;;;6.70;;
836;SDS011;400;53.550;9.932;2023-11-19T11:32:33;20.80;;;7.57;;
836;SDS011;400;53.550;9.932;2023-11-19T11:35:11;20.73;;;6.30;;
836;SDS011;400;53.550;9.932;2023-11-19T11:37:53;15.70;;;5.10;;
836;SDS011;400;53.550;9.932;2023-11-19T11:40:27;20.23;;;6.33;;
836;SDS011;400;53.550;9.932;2023-11-19T11:42:54;23.73;;;6.00;;
836;SDS011;400;53.550;9.932;2023-11-19T11:45:34;23.33;;;5.20;;
836;SDS011;400;53.550;9.932;2023-11-19T11:48:13;40.97;;;26.40;;
836;SDS011;400;53.550;9.932;2023-11-19T11:50:49;24.70;;;6.10;;
836;SDS011;400;53.550;9.932;2023-11-19T11:53:19;21.57;;;5.97;;
836;SDS011;400;53.550;9.932;2023-11-19T11:55:55;21.63;;;5.90;;
836;SDS011;400;53.550;9.932;2023-11-19T11:58:30;25.07;;;5.67;;
836;SDS011;400;53.550;9.932;2023-11-19T12:00:59;20.90;;;6.27;;
836;SDS011;400;53.550;9.932;2023-11-19T12:03:30;20.07;;;5.90;;
836;SDS011;400;53.550;9.932;2023-11-19T12:05:58;21.43;;;6.80;;
836;SDS011;400;53.550;9.932;2023-11-19T12:08:28;28.43;;;7.27;;
836;SDS011;400;53.550;9.932;2023-11-19T12:10:57;22.63;;;6.13;;
836;SDS011;400;53.550;9.932;2023-11-19T12:13:42;18.77;;;5.07;;
836;SDS011;400;53.550;9.932;2023-11-19T12:16:14;23.07;;;7.23;;
836;SDS011;400;53.550;9.932;2023-11-19T12:18:48;18.97;;;6.57;;
836;SDS011;400;53.550;9.932;2023-11-19T12:21:29;17.77;;;5.00;;
836;SDS011;400;53.550;9.932;2023-11-19T12:23:57;16.10;;;4.87;;
836;SDS011;400;53.550;9.932;2023-11-19T12:26:38;19.13;;;5.60;;
836;SDS011;400;53.550;9.932;2023-11-19T12:29:11;18.73;;;6.13;;
836;SDS011;400;53.550;9.932;2023-11-19T12:31:44;17.83;;;5.70;;
836;SDS011;400;53.550;9.932;2023-11-19T12:34:21;15.33;;;5.87;;
836;SDS011;400;53.550;9.932;2023-11-19T12:36:49;13.50;;;5.30;;
836;SDS011;400;53.550;9.932;2023-11-19T12:39:16;18.87;;;5.17;;
836;SDS011;400;53.550;9.932;2023-11-19T12:41:49;17.93;;;5.00;;
836;SDS011;400;53.550;9.932;2023-11-19T12:44:17;19.00;;;6.03;;
836;SDS011;400;53.550;9.932;2023-11-19T12:46:45;19.93;;;5.87;;
836;SDS011;400;53.550;9.932;2023-11-19T12:49:13;14.13;;;4.50;;
836;SDS011;400;53.550;9.932;2023-11-19T12:51:46;14.70;;;5.20;;
836;SDS011;400;53.550;9.932;2023-11-19T12:54:13;17.90;;;5.10;;
836;SDS011;400;53.550;9.932;2023-11-19T12:56:40;14.30;;;4.83;;
836;SDS011;400;53.550;9.932;2023-11-19T12:59:17;17.50;;;5.30;;
836;SDS011;400;53.550;9.932;2023-11-19T13:01:53;16.53;;;4.90;;
836;SDS011;400;53.550;9.932;2023-11-19T13:04:21;24.17;;;5.50;;
836;SDS011;400;53.550;9.932;2023-11-19T13:06:50;22.13;;;5.40;;
836;SDS011;400;53.550;9.932;2023-11-19T13:09:24;14.00;;;4.73;;
836;SDS011;400;53.550;9.932;2023-11-19T13:11:52;19.97;;;6.03;;
836;SDS011;400;53.550;9.932;2023-11-19T13:14:19;18.30;;;4.83;;
836;SDS011;400;53.550;9.932;2023-11-19T13:16:47;18.47;;;5.20;;
836;SDS011;400;53.550;9.932;2023-11-19T13:19:14;15.40;;;4.30;;
836;SDS011;400;53.550;9.932;2023-11-19T13:21:44;24.10;;;5.40;;
836;SDS011;400;53.550;9.932;2023-11-19T13:24:14;14.47;;;5.00;;
836;SDS011;400;53.550;9.932;2023-11-19T13:26:41;17.90;;;6.47;;
836;SDS011;400;53.550;9.932;2023-11-19T13:29:12;12.40;;;4.00;;
836;SDS011;400;53.550;9.932;2023-11-19T13:31:41;20.47;;;5.67;;
836;SDS011;400;53.550;9.932;2023-11-19T13:34:08;19.53;;;5.87;;
836;SDS011;400;53.550;9.932;2023-11-19T13:36:35;14.93;;;5.00;;
836;SDS011;400;53.550;9.932;2023-11-19T13:39:02;18.63;;;4.87;;
836;SDS011;400;53.550;9.932;2023-11-19T13:41:31;24.63;;;6.73;;
836;SDS011;400;53.550;9.932;2023-11-19T13:43:58;15.30;;;4.60;;
836;SDS011;400;53.550;9.932;2023-11-19T13:46:25;17.73;;;6.20;;
836;SDS011;400;53.550;9.932;2023-11-19T13:48:52;14.50;;;5.73;;
836;SDS011;400;53.550;9.932;2023-11-19T13:51:19;14.20;;;4.80;;
836;SDS011;400;53.550;9.932;2023-11-19T13:53:46;20.00;;;4.80;;
836;SDS011;400;53.550;9.932;2023-11-19T13:56:13;15.80;;;4.87;;
836;SDS011;400;53.550;9.932;2023-11-19T13:58:42;14.57;;;5.13;;
836;SDS011;400;53.550;9.932;2023-11-19T14:01:11;15.43;;;5.20;;
836;SDS011;400;53.550;9.932;2023-11-19T14:03:39;12.10;;;5.50;;
836;SDS011;400;53.550;9.932;2023-11-19T14:06:07;17.90;;;4.73;;
836;SDS011;400;53.550;9.932;2023-11-19T14:08:34;14.90;;;4.97;;
836;SDS011;400;53.550;9.932;2023-11-19T14:11:03;20.37;;;5.10;;
836;SDS011;400;53.550;9.932;2023-11-19T14:13:35;16.23;;;4.80;;
836;SDS011;400;53.550;9.932;2023-11-19T14:16:07;14.23;;;5.13;;
836;SDS011;400;53.550;9.932;2023-11-19T14:18:34;17.93;;;5.60;;
836;SDS011;400;53.550;9.932;2023-11-19T14:21:01;14.13;;;5.63;;
836;SDS011;400;53.550;9.932;2023-11-19T14:23:30;13.13;;;4.70;;
836;SDS011;400;53.550;9.932;2023-11-19T14:25:57;13.10;;;5.30;;
836;SDS011;400;53.550;9.932;2023-11-19T14:28:23;13.20;;;4.87;;
836;SDS011;400;53.550;9.932;2023-11-19T14:30:52;13.60;;;4.63;;
836;SDS011;400;53.550;9.932;2023-11-19T14:33:23;14.60;;;5.40;;
836;SDS011;400;53.550;9.932;2023-11-19T14:35:50;27.13;;;5.90;;
836;SDS011;400;53.550;9.932;2023-11-19T14:38:17;15.93;;;6.77;;
836;SDS011;400;53.550;9.932;2023-11-19T14:40:44;20.07;;;7.67;;
836;SDS011;400;53.550;9.932;2023-11-19T14:43:11;18.10;;;5.70;;
836;SDS011;400;53.550;9.932;2023-11-19T14:45:39;14.10;;;4.77;;
836;SDS011;400;53.550;9.932;2023-11-19T14:48:06;22.50;;;6.40;;
836;SDS011;400;53.550;9.932;2023-11-19T14:50:37;14.80;;;4.63;;
836;SDS011;400;53.550;9.932;2023-11-19T14:53:04;12.83;;;4.77;;
836;SDS011;400;53.550;9.932;2023-11-19T14:55:31;15.77;;;5.60;;
836;SDS011;400;53.550;9.932;2023-11-19T14:57:58;16.47;;;4.53;;
836;SDS011;400;53.550;9.932;2023-11-19T15:00:25;12.60;;;3.70;;
836;SDS011;400;53.550;9.932;2023-11-19T15:02:52;11.77;;;4.07;;
836;SDS011;400;53.550;9.932;2023-11-19T15:05:19;14.67;;;4.60;;
836;SDS011;400;53.550;9.932;2023-11-19T15:07:48;12.70;;;4.30;;
836;SDS011;400;53.550;9.932;2023-11-19T15:10:17;18.00;;;5.30;;
836;SDS011;400;53.550;9.932;2023-11-19T15:12:45;15.23;;;4.33;;
836;SDS011;400;53.550;9.932;2023-11-19T15:15:12;16.17;;;5.20;;
836;SDS011;400;53.550;9.932;2023-11-19T15:17:42;11.93;;;4.20;;
836;SDS011;400;53.550;9.932;2023-11-19T15:20:10;14.43;;;4.03;;
836;SDS011;400;53.550;9.932;2023-11-19T15:22:44;18.27;;;5.70;;
836;SDS011;400;53.550;9.932;2023-11-19T15:25:17;12.93;;;4.73;;
836;SDS011;400;53.550;9.932;2023-11-19T15:27:45;14.40;;;3.87;;
836;SDS011;400;53.550;9.932;2023-11-19T15:30:12;16.40;;;4.40;;
836;SDS011;400;53.550;9.932;2023-11-19T15:32:41;15.60;;;4.70;;
836;SDS011;400;53.550;9.932;2023-11-19T15:35:09;16.67;;;5.10;;
836;SDS011;400;53.550;9.932;2023-11-19T15:37:37;14.50;;;4.57;;
836;SDS011;400;53.550;9.932;2023-11-19T15:40:05;13.23;;;3.90;;
836;SDS011;400;53.550;9.932;2023-11-19T15:42:35;13.33;;;4.87;;
836;SDS011;400;53.550;9.932;2023-11-19T15:45:02;20.90;;;5.70;;
836;SDS011;400;53.550;9.932;2023-11-19T15:47:31;17.60;;;4.73;;